createdAt,value
2019-03-21T00:01:17.940Z,47.81
2019-03-21T00:03:50.190Z,48.08
2019-03-21T00:06:20.839Z,48.32
2019-03-21T00:08:51.211Z,48.59
2019-03-21T00:11:56.763Z,48.24
2019-03-21T00:14:48.360Z,48.79
2019-03-21T00:17:22.040Z,48.43
2019-03-21T00:19:52.397Z,48.33
2019-03-21T00:22:22.742Z,48.25
2019-03-21T00:24:53.155Z,48.16
2019-03-21T00:27:23.533Z,47.90
2019-03-21T00:29:53.898Z,48.04
2019-03-21T00:32:24.370Z,48.04
2019-03-21T00:34:54.706Z,48.14
2019-03-21T00:37:25.145Z,47.61
2019-03-21T00:39:58.334Z,47.80
2019-03-21T00:42:28.684Z,47.35
2019-03-21T00:44:59.039Z,47.24
2019-03-21T00:47:29.400Z,47.66
2019-03-21T00:49:59.771Z,47.75
2019-03-21T00:52:30.124Z,47.61
2019-03-21T00:55:00.476Z,47.68
2019-03-21T00:57:30.910Z,47.86
2019-03-21T01:00:01.257Z,48.49
2019-03-21T01:02:31.607Z,48.48
2019-03-21T01:05:01.951Z,48.07
2019-03-21T01:07:32.320Z,48.52
2019-03-21T01:10:02.665Z,48.90
2019-03-21T01:12:33.033Z,49.27
2019-03-21T01:15:04.056Z,49.45
2019-03-21T01:17:34.429Z,49.58
2019-03-21T01:20:08.084Z,49.35
2019-03-21T01:22:38.432Z,48.91
2019-03-21T01:25:34.408Z,49.15
2019-03-21T01:28:04.961Z,49.52
2019-03-21T01:30:35.351Z,49.41
2019-03-21T01:33:05.721Z,49.36
2019-03-21T01:35:36.713Z,49.60
2019-03-21T01:38:07.076Z,49.11
2019-03-21T01:40:43.317Z,49.26
2019-03-21T01:43:13.681Z,49.56
2019-03-21T01:45:44.092Z,49.64
2019-03-21T01:48:14.439Z,50.14
2019-03-21T01:50:44.818Z,50.49
2019-03-21T01:53:15.181Z,50.52
2019-03-21T01:55:45.545Z,51.35
2019-03-21T01:58:15.894Z,51.05
2019-03-21T02:00:49.352Z,51.39
2019-03-21T02:03:19.720Z,51.71
2019-03-21T02:05:51.028Z,51.70
2019-03-21T02:08:21.398Z,51.32
2019-03-21T02:10:51.739Z,51.08
2019-03-21T02:13:22.085Z,51.55
2019-03-21T02:15:53.431Z,52.32
2019-03-21T02:18:23.786Z,52.13
2019-03-21T02:20:54.142Z,52.27
2019-03-21T02:23:25.257Z,52.13
2019-03-21T02:25:55.620Z,51.73
2019-03-21T02:28:25.967Z,51.96
2019-03-21T02:30:56.320Z,52.13
2019-03-21T02:33:32.831Z,52.27
2019-03-21T02:36:06.053Z,52.36
2019-03-21T02:38:36.399Z,52.41
2019-03-21T02:41:09.962Z,53.06
2019-03-21T02:43:40.678Z,52.83
2019-03-21T02:46:11.051Z,52.79
2019-03-21T02:48:41.483Z,52.64
2019-03-21T02:51:12.925Z,52.35
2019-03-21T02:53:43.717Z,52.16
2019-03-21T02:56:22.983Z,52.01
2019-03-21T02:58:53.330Z,51.92
2019-03-21T03:01:23.674Z,52.03
2019-03-21T03:03:55.189Z,51.71
2019-03-21T03:06:25.603Z,52.05
2019-03-21T03:08:55.986Z,51.82
2019-03-21T03:11:26.380Z,51.74
2019-03-21T03:13:56.727Z,52.07
2019-03-21T03:16:27.087Z,51.70
2019-03-21T03:18:57.435Z,52.51
2019-03-21T03:21:27.800Z,52.69
2019-03-21T03:23:58.164Z,52.87
2019-03-21T03:26:28.532Z,52.80
2019-03-21T03:28:58.868Z,52.44
2019-03-21T03:31:29.222Z,51.25
2019-03-21T03:33:59.580Z,52.23
2019-03-21T03:36:29.953Z,52.78
2019-03-21T03:39:00.382Z,52.86
2019-03-21T03:41:30.723Z,52.31
2019-03-21T03:44:01.084Z,52.90
2019-03-21T03:46:31.489Z,52.30
2019-03-21T03:49:01.866Z,53.36
2019-03-21T03:51:32.223Z,52.69
2019-03-21T03:54:02.563Z,53.05
2019-03-21T03:56:33.004Z,53.80
2019-03-21T03:59:06.774Z,53.70
2019-03-21T04:01:37.158Z,53.89
2019-03-21T04:04:07.506Z,53.95
2019-03-21T04:06:37.859Z,54.29
2019-03-21T04:09:09.125Z,54.02
2019-03-21T04:11:39.432Z,54.07
2019-03-21T04:14:09.803Z,54.10
2019-03-21T04:16:40.147Z,54.38
2019-03-21T04:19:10.512Z,54.78
2019-03-21T04:21:40.868Z,55.07
2019-03-21T04:24:11.226Z,55.12
2019-03-21T04:26:41.609Z,55.18
2019-03-21T04:29:11.967Z,54.25
2019-03-21T04:31:42.337Z,55.08
2019-03-21T04:34:13.849Z,54.99
2019-03-21T04:36:45.244Z,55.09
2019-03-21T04:39:15.739Z,55.24
2019-03-21T04:41:46.124Z,54.56
2019-03-21T04:44:16.486Z,55.04
2019-03-21T04:46:46.820Z,54.50
2019-03-21T04:49:17.159Z,55.06
2019-03-21T04:51:47.589Z,54.88
2019-03-21T04:54:17.938Z,55.40
2019-03-21T04:56:48.278Z,56.22
2019-03-21T04:59:18.648Z,56.35
2019-03-21T05:01:48.990Z,56.43
2019-03-21T05:04:19.429Z,56.51
2019-03-21T05:06:49.801Z,56.50
2019-03-21T05:09:20.310Z,56.23
2019-03-21T05:11:50.737Z,55.17
2019-03-21T05:14:21.137Z,55.37
2019-03-21T05:16:51.486Z,55.13
2019-03-21T05:19:21.890Z,54.80
2019-03-21T05:21:52.289Z,55.17
2019-03-21T05:24:22.685Z,55.36
2019-03-21T05:26:53.060Z,55.23
2019-03-21T05:29:23.482Z,54.59
2019-03-21T05:31:53.864Z,55.34
2019-03-21T05:34:25.373Z,54.63
2019-03-21T05:36:55.801Z,55.43
2019-03-21T05:39:26.189Z,55.29
2019-03-21T05:41:56.554Z,55.59
2019-03-21T05:44:30.928Z,54.79
2019-03-21T05:47:01.493Z,54.62
2019-03-21T05:49:31.941Z,54.58
2019-03-21T05:52:02.353Z,54.57
2019-03-21T05:54:32.725Z,55.45
2019-03-21T05:57:04.032Z,55.44
2019-03-21T05:59:34.588Z,55.26
2019-03-21T06:02:05.081Z,55.65
2019-03-21T06:04:35.449Z,54.98
2019-03-21T06:07:09.431Z,55.43
2019-03-21T06:09:39.777Z,55.12
2019-03-21T06:12:10.264Z,55.02
2019-03-21T06:14:46.700Z,55.37
2019-03-21T06:17:17.099Z,54.95
2019-03-21T06:19:50.721Z,55.54
2019-03-21T06:22:30.167Z,56.39
2019-03-21T06:25:16.098Z,56.78
2019-03-21T06:27:46.473Z,57.38
2019-03-21T06:30:16.929Z,56.95
2019-03-21T06:32:47.708Z,57.11
2019-03-21T06:35:21.962Z,56.39
2019-03-21T06:37:53.129Z,55.13
2019-03-21T06:40:23.510Z,55.71
2019-03-21T06:42:53.964Z,54.42
2019-03-21T06:45:24.360Z,54.73
2019-03-21T06:47:54.929Z,55.46
2019-03-21T06:50:25.311Z,56.58
2019-03-21T06:52:55.669Z,56.58
2019-03-21T06:55:26.035Z,54.82
2019-03-21T06:57:56.411Z,51.84
2019-03-21T07:00:26.805Z,53.79
2019-03-21T07:02:57.371Z,55.75
2019-03-21T07:05:27.745Z,55.92
2019-03-21T07:07:58.112Z,56.11
2019-03-21T07:10:28.514Z,56.08
2019-03-21T07:12:59.847Z,56.50
2019-03-21T07:15:30.215Z,54.80
2019-03-21T07:18:00.564Z,51.75
2019-03-21T07:20:32.513Z,52.92
2019-03-21T07:23:02.898Z,53.45
2019-03-21T07:25:33.274Z,54.06
2019-03-21T07:28:03.650Z,54.84
2019-03-21T07:30:34.010Z,55.17
2019-03-21T07:33:04.625Z,55.14
2019-03-21T07:35:34.970Z,55.36
2019-03-21T07:38:05.338Z,57.37
2019-03-21T07:40:35.705Z,57.61
2019-03-21T07:43:06.201Z,57.15
2019-03-21T07:45:36.558Z,56.98
2019-03-21T07:48:06.931Z,56.24
2019-03-21T07:50:37.274Z,55.63
2019-03-21T07:53:07.636Z,55.07
2019-03-21T07:55:38.005Z,55.84
2019-03-21T07:58:08.388Z,56.42
2019-03-21T08:00:38.755Z,55.88
2019-03-21T08:03:09.129Z,55.63
2019-03-21T08:05:40.744Z,55.26
2019-03-21T08:08:11.346Z,55.05
2019-03-21T08:10:41.743Z,56.24
2019-03-21T08:13:12.087Z,56.93
2019-03-21T08:15:42.460Z,57.35
2019-03-21T08:18:12.829Z,57.03
2019-03-21T08:20:43.220Z,57.95
2019-03-21T08:23:13.580Z,57.57
2019-03-21T08:25:43.947Z,57.89
2019-03-21T08:28:14.345Z,56.39
2019-03-21T08:31:03.148Z,56.88
2019-03-21T08:33:33.525Z,56.86
2019-03-21T08:36:03.935Z,57.03
2019-03-21T08:38:34.294Z,57.46
2019-03-21T08:41:04.885Z,57.69
2019-03-21T08:43:35.273Z,57.15
2019-03-21T08:46:05.651Z,55.41
2019-03-21T08:48:37.167Z,56.40
2019-03-21T08:51:08.805Z,55.62
2019-03-21T08:53:39.403Z,54.39
2019-03-21T08:56:09.853Z,55.47
2019-03-21T08:58:40.220Z,55.42
2019-03-21T09:01:10.589Z,56.68
2019-03-21T09:03:40.982Z,56.31
2019-03-21T09:06:11.334Z,56.06
2019-03-21T09:08:41.713Z,54.65
2019-03-21T09:11:12.096Z,54.67
2019-03-21T09:13:42.474Z,53.83
2019-03-21T09:16:12.851Z,53.75
2019-03-21T09:18:43.224Z,54.14
2019-03-21T09:21:19.620Z,52.89
2019-03-21T09:23:45.653Z,52.26
2019-03-21T09:26:16.126Z,49.85
2019-03-21T09:28:46.496Z,49.04
2019-03-21T09:31:16.882Z,48.25
2019-03-21T09:33:47.263Z,47.78
2019-03-21T09:36:17.684Z,47.66
2019-03-21T09:38:48.050Z,48.47
2019-03-21T09:41:18.430Z,49.28
2019-03-21T09:43:48.806Z,49.54
2019-03-21T09:46:19.153Z,49.24
2019-03-21T09:48:49.529Z,48.68
2019-03-21T09:51:30.355Z,47.42
2019-03-21T09:53:51.955Z,45.08
2019-03-21T09:56:24.088Z,45.01
2019-03-21T09:58:54.577Z,47.07
2019-03-21T10:01:24.978Z,50.49
2019-03-21T10:03:55.335Z,49.55
2019-03-21T10:06:25.688Z,51.23
2019-03-21T10:08:56.040Z,50.44
2019-03-21T10:11:26.392Z,50.12
2019-03-21T10:13:56.766Z,48.86
2019-03-21T10:16:27.118Z,49.47
2019-03-21T10:18:58.906Z,49.24
2019-03-21T10:21:29.276Z,48.75
2019-03-21T10:23:59.642Z,47.73
2019-03-21T10:26:29.999Z,47.47
2019-03-21T10:29:00.384Z,47.02
2019-03-21T10:31:30.763Z,45.79
2019-03-21T10:34:01.130Z,46.84
2019-03-21T10:36:32.493Z,46.87
2019-03-21T10:39:04.064Z,47.29
2019-03-21T10:41:34.424Z,47.83
2019-03-21T10:44:04.796Z,47.83
2019-03-21T10:46:35.158Z,47.36
2019-03-21T10:49:05.541Z,48.57
2019-03-21T10:51:35.904Z,47.96
2019-03-21T10:54:06.269Z,48.03
2019-03-21T10:56:36.653Z,49.51
2019-03-21T10:59:07.011Z,49.08
2019-03-21T11:01:37.378Z,49.15
2019-03-21T11:04:07.751Z,48.85
2019-03-21T11:06:38.102Z,48.10
2019-03-21T11:09:09.255Z,48.40
2019-03-21T11:11:39.630Z,49.16
2019-03-21T11:14:09.977Z,48.05
2019-03-21T11:16:40.353Z,47.43
2019-03-21T11:19:10.847Z,47.15
2019-03-21T11:21:41.209Z,46.18
2019-03-21T11:24:11.604Z,45.76
2019-03-21T11:26:41.975Z,45.88
2019-03-21T11:29:12.364Z,46.76
2019-03-21T11:31:42.740Z,46.75
2019-03-21T11:34:13.097Z,47.16
2019-03-21T11:36:43.666Z,46.20
2019-03-21T11:39:14.051Z,45.05
2019-03-21T11:41:44.431Z,46.51
2019-03-21T11:44:14.794Z,46.67
2019-03-21T11:46:45.286Z,46.60
2019-03-21T11:49:15.831Z,45.38
2019-03-21T11:51:46.177Z,45.37
2019-03-21T11:54:17.505Z,44.89
2019-03-21T11:56:47.871Z,45.24
2019-03-21T11:59:18.266Z,46.55
2019-03-21T12:01:48.625Z,47.62
2019-03-21T12:04:19.977Z,48.77
2019-03-21T12:06:51.420Z,48.39
2019-03-21T12:09:21.871Z,49.06
2019-03-21T12:11:52.307Z,48.62
2019-03-21T12:14:22.683Z,48.66
2019-03-21T12:16:53.053Z,49.24
2019-03-21T12:19:23.410Z,49.51
2019-03-21T12:21:53.765Z,49.24
2019-03-21T12:24:24.160Z,49.13
2019-03-21T12:26:54.541Z,49.28
2019-03-21T12:29:25.992Z,50.60
2019-03-21T12:31:56.367Z,50.93
2019-03-21T12:34:26.759Z,51.72
2019-03-21T12:36:57.110Z,52.42
2019-03-21T12:39:28.999Z,52.56
2019-03-21T12:41:59.786Z,52.70
2019-03-21T12:44:30.180Z,53.57
2019-03-21T12:47:00.545Z,52.40
2019-03-21T12:49:30.925Z,52.61
2019-03-21T12:52:01.304Z,52.81
2019-03-21T12:54:31.675Z,52.87
2019-03-21T12:57:02.048Z,52.83
2019-03-21T12:59:32.406Z,52.83
2019-03-21T13:02:02.803Z,52.71
2019-03-21T13:04:33.542Z,52.92
2019-03-21T13:07:03.895Z,52.08
2019-03-21T13:09:34.292Z,52.31
2019-03-21T13:12:04.683Z,52.29
2019-03-21T13:14:35.030Z,51.54
2019-03-21T13:17:05.420Z,51.62
2019-03-21T13:19:35.778Z,51.26
2019-03-21T13:22:06.163Z,51.93
2019-03-21T13:24:38.458Z,52.36
2019-03-21T13:27:08.837Z,51.97
2019-03-21T13:29:40.818Z,52.24
2019-03-21T13:32:12.206Z,52.36
2019-03-21T13:34:42.621Z,52.37
2019-03-21T13:37:13.007Z,53.13
2019-03-21T13:39:43.387Z,52.89
2019-03-21T13:42:13.734Z,53.12
2019-03-21T13:44:44.127Z,52.78
2019-03-21T13:47:14.471Z,53.36
2019-03-21T13:49:44.825Z,53.17
2019-03-21T13:52:15.163Z,53.97
2019-03-21T13:54:45.559Z,53.50
2019-03-21T13:57:15.959Z,54.02
2019-03-21T13:59:46.345Z,53.02
2019-03-21T14:02:16.722Z,53.46
2019-03-21T14:04:47.278Z,53.50
2019-03-21T14:07:17.663Z,53.40
2019-03-21T14:09:48.024Z,54.00
2019-03-21T14:12:19.481Z,53.22
2019-03-21T14:14:49.857Z,52.94
2019-03-21T14:17:22.098Z,52.84
2019-03-21T14:19:52.309Z,53.80
2019-03-21T14:22:22.706Z,53.20
2019-03-21T14:24:53.071Z,53.27
2019-03-21T14:27:25.956Z,53.05
2019-03-21T14:30:01.497Z,52.97
2019-03-21T14:32:30.380Z,54.21
2019-03-21T14:35:00.796Z,54.22
2019-03-21T14:37:31.346Z,55.00
2019-03-21T14:40:01.709Z,54.98
2019-03-21T14:42:32.143Z,55.01
2019-03-21T14:45:02.542Z,55.17
2019-03-21T14:47:36.383Z,54.53
2019-03-21T14:50:07.635Z,55.29
2019-03-21T14:52:38.025Z,55.35
2019-03-21T14:55:09.882Z,55.27
2019-03-21T14:57:40.275Z,55.68
2019-03-21T15:00:20.084Z,56.08
2019-03-21T15:02:50.481Z,56.21
2019-03-21T15:05:21.887Z,56.69
2019-03-21T15:07:52.256Z,56.55
2019-03-21T15:10:23.601Z,56.37
2019-03-21T15:12:54.097Z,56.46
2019-03-21T15:15:24.511Z,56.83
2019-03-21T15:17:55.426Z,57.03
2019-03-21T15:20:25.831Z,56.17
2019-03-21T15:22:57.087Z,56.91
2019-03-21T15:25:27.602Z,56.36
2019-03-21T15:27:58.042Z,56.82
2019-03-21T15:30:28.739Z,57.15
2019-03-21T15:32:59.454Z,56.83
2019-03-21T15:35:31.743Z,57.08
2019-03-21T15:38:02.517Z,56.93
2019-03-21T15:40:33.298Z,57.30
2019-03-21T15:43:03.673Z,57.41
2019-03-21T15:45:34.280Z,57.73
2019-03-21T15:48:04.804Z,57.95
2019-03-21T15:50:40.133Z,58.13
2019-03-21T15:53:10.707Z,57.62
2019-03-21T15:55:41.127Z,57.46
2019-03-21T15:58:11.503Z,57.54
2019-03-21T16:00:42.718Z,58.02
2019-03-21T16:03:13.194Z,58.10
2019-03-21T16:05:44.618Z,58.23
2019-03-21T16:08:15.508Z,58.37
2019-03-21T16:10:45.997Z,58.64
2019-03-21T16:13:16.453Z,58.70
2019-03-21T16:15:46.914Z,58.83
2019-03-21T16:18:17.326Z,58.85
2019-03-21T16:20:47.699Z,58.72
2019-03-21T16:23:18.103Z,58.57
2019-03-21T16:25:48.800Z,58.04
2019-03-21T16:28:20.307Z,58.33
2019-03-21T16:30:51.232Z,58.23
2019-03-21T16:33:21.669Z,58.56
2019-03-21T16:35:52.201Z,58.33
2019-03-21T16:38:22.670Z,58.53
2019-03-21T16:40:53.045Z,58.47
2019-03-21T16:43:23.396Z,58.46
2019-03-21T16:45:55.253Z,58.08
2019-03-21T16:48:25.683Z,58.47
2019-03-21T16:50:57.400Z,58.25
2019-03-21T16:53:27.764Z,58.11
2019-03-21T16:55:58.155Z,58.07
2019-03-21T16:58:28.580Z,58.23
2019-03-21T17:00:59.194Z,57.39
2019-03-21T17:03:31.189Z,58.51
2019-03-21T17:06:01.655Z,57.75
2019-03-21T17:08:32.197Z,57.75
2019-03-21T17:11:02.816Z,58.12
2019-03-21T17:13:33.160Z,59.21
2019-03-21T17:16:05.698Z,60.39
2019-03-21T17:18:35.631Z,60.77
2019-03-21T17:21:06.001Z,61.06
2019-03-21T17:23:36.409Z,60.91
2019-03-21T17:26:06.851Z,60.90
2019-03-21T17:28:37.209Z,60.21
2019-03-21T17:31:07.589Z,60.45
2019-03-21T17:33:39.588Z,60.27
2019-03-21T17:36:09.964Z,60.06
2019-03-21T17:38:40.331Z,60.39
2019-03-21T17:41:10.714Z,60.15
2019-03-21T17:43:41.089Z,59.83
2019-03-21T17:46:11.498Z,60.40
2019-03-21T17:48:41.969Z,60.24
2019-03-21T17:51:12.335Z,59.96
2019-03-21T17:53:42.748Z,59.73
2019-03-21T17:56:14.797Z,59.90
2019-03-21T17:58:45.175Z,60.25
2019-03-21T18:01:17.148Z,60.40
2019-03-21T18:03:47.541Z,60.45
2019-03-21T18:06:18.066Z,60.91
2019-03-21T18:08:49.026Z,60.44
2019-03-21T18:11:22.225Z,60.80
2019-03-21T18:13:52.832Z,60.64
2019-03-21T18:16:23.751Z,60.61
2019-03-21T18:18:55.822Z,60.90
2019-03-21T18:21:27.088Z,61.26
2019-03-21T18:23:57.777Z,61.34
2019-03-21T18:26:29.792Z,61.01
2019-03-21T18:29:00.162Z,61.21
2019-03-21T18:31:30.535Z,61.42
2019-03-21T18:34:00.907Z,60.65
2019-03-21T18:36:31.462Z,60.80
2019-03-21T18:39:01.854Z,61.09
2019-03-21T18:41:32.588Z,60.79
2019-03-21T18:44:02.945Z,60.34
2019-03-21T18:46:33.133Z,60.84
2019-03-21T18:49:03.533Z,60.12
2019-03-21T18:51:33.932Z,60.59
2019-03-21T18:54:04.393Z,60.52
2019-03-21T18:56:35.887Z,60.63
2019-03-21T18:59:06.268Z,60.99
2019-03-21T19:01:42.035Z,60.69
2019-03-21T19:04:12.515Z,60.82
2019-03-21T19:06:42.932Z,60.69
2019-03-21T19:09:16.807Z,60.64
2019-03-21T19:11:47.509Z,60.97
2019-03-21T19:14:18.225Z,60.60
2019-03-21T19:16:48.615Z,60.38
2019-03-21T19:19:19.131Z,60.99
2019-03-21T19:21:49.555Z,60.29
2019-03-21T19:24:20.295Z,59.83
2019-03-21T19:26:50.938Z,61.54
2019-03-21T19:29:21.598Z,61.98
2019-03-21T19:31:52.151Z,61.74
2019-03-21T19:34:23.598Z,62.35
2019-03-21T19:36:54.077Z,62.00
2019-03-21T19:39:24.811Z,62.52
2019-03-21T19:41:55.257Z,61.50
2019-03-21T19:44:25.751Z,60.66
2019-03-21T19:46:57.521Z,60.19
2019-03-21T19:49:28.156Z,60.38
2019-03-21T19:51:59.041Z,59.30
2019-03-21T19:54:29.718Z,58.98
2019-03-21T19:57:00.232Z,58.81
2019-03-21T19:59:31.216Z,59.04
2019-03-21T20:02:02.031Z,58.54
2019-03-21T20:04:34.302Z,58.94
2019-03-21T20:07:05.083Z,58.45
2019-03-21T20:09:36.255Z,58.22
2019-03-21T20:12:06.654Z,59.23
2019-03-21T20:14:37.018Z,59.03
2019-03-21T20:17:07.781Z,59.08
2019-03-21T20:19:39.874Z,58.95
2019-03-21T20:22:10.313Z,58.85
2019-03-21T20:24:41.221Z,58.90
2019-03-21T20:27:12.824Z,58.41
2019-03-21T20:29:43.350Z,59.22
2019-03-21T20:32:20.426Z,58.52
2019-03-21T20:34:46.887Z,58.66
2019-03-21T20:37:18.931Z,58.91
2019-03-21T20:39:49.931Z,58.86
2019-03-21T20:42:20.474Z,59.49
2019-03-21T20:44:52.006Z,58.93
2019-03-21T20:47:22.390Z,59.38
2019-03-21T20:49:52.850Z,59.88
2019-03-21T20:52:23.305Z,59.25
2019-03-21T20:54:53.704Z,59.21
2019-03-21T20:57:24.571Z,59.28
2019-03-21T20:59:55.384Z,58.99
2019-03-21T21:02:25.795Z,59.18
2019-03-21T21:04:56.578Z,59.34
2019-03-21T21:07:27.134Z,59.38
2019-03-21T21:09:57.607Z,59.78
2019-03-21T21:12:27.975Z,60.27
2019-03-21T21:14:58.390Z,60.11
2019-03-21T21:17:28.846Z,59.14
2019-03-21T21:19:59.382Z,59.31
2019-03-21T21:22:31.626Z,59.05
2019-03-21T21:25:02.014Z,59.24
2019-03-21T21:27:32.403Z,59.39
2019-03-21T21:30:03.352Z,59.27
2019-03-21T21:32:34.046Z,59.04
2019-03-21T21:35:06.562Z,59.75
2019-03-21T21:37:37.909Z,59.39
2019-03-21T21:40:09.800Z,59.35
2019-03-21T21:42:40.320Z,59.29
2019-03-21T21:45:13.119Z,58.76
2019-03-21T21:47:43.563Z,59.22
2019-03-21T21:50:16.168Z,58.71
2019-03-21T21:52:46.560Z,58.65
2019-03-21T21:55:16.949Z,58.64
2019-03-21T21:57:47.324Z,58.69
2019-03-21T22:00:19.142Z,58.94
2019-03-21T22:02:49.633Z,58.92
2019-03-21T22:05:20.041Z,58.68
2019-03-21T22:07:51.964Z,58.51
2019-03-21T22:10:22.291Z,58.93
2019-03-21T22:12:52.780Z,58.93
2019-03-21T22:15:23.161Z,58.46
2019-03-21T22:17:53.541Z,58.40
2019-03-21T22:20:24.881Z,58.50
2019-03-21T22:22:55.253Z,58.18
2019-03-21T22:25:25.608Z,58.16
2019-03-21T22:27:55.980Z,58.20
2019-03-21T22:30:26.369Z,58.19
2019-03-21T22:32:56.707Z,58.15
2019-03-21T22:35:28.714Z,58.32
2019-03-21T22:37:59.106Z,58.45
2019-03-21T22:40:30.548Z,58.06
2019-03-21T22:43:00.902Z,58.63
2019-03-21T22:45:32.158Z,59.02
2019-03-21T22:48:02.537Z,59.67
2019-03-21T22:50:32.912Z,60.62
2019-03-21T22:53:03.296Z,61.13
2019-03-21T22:55:33.660Z,61.11
2019-03-21T22:58:04.031Z,60.58
2019-03-21T23:00:42.405Z,60.21
2019-03-21T23:03:14.014Z,59.87
2019-03-21T23:05:44.394Z,60.50
2019-03-21T23:08:14.776Z,60.80
2019-03-21T23:10:45.344Z,61.13
2019-03-21T23:13:15.750Z,61.31
2019-03-21T23:15:46.141Z,61.87
2019-03-21T23:18:16.650Z,61.80
2019-03-21T23:20:47.023Z,62.47
2019-03-21T23:23:17.405Z,62.22
2019-03-21T23:25:49.032Z,62.76
2019-03-21T23:28:19.431Z,62.48
2019-03-21T23:30:49.826Z,62.40
2019-03-21T23:33:20.247Z,61.86
2019-03-21T23:35:50.652Z,60.90
2019-03-21T23:38:21.033Z,61.07
2019-03-21T23:40:51.407Z,61.13
2019-03-21T23:43:21.822Z,60.86
2019-03-21T23:45:52.201Z,61.87
2019-03-21T23:48:22.606Z,61.76
2019-03-21T23:50:52.983Z,62.30
2019-03-21T23:53:23.407Z,61.70
2019-03-21T23:55:53.761Z,62.86
2019-03-21T23:58:24.141Z,62.33
